Time;durP1;ratioP1;P1;durP2;ratioP2;P2;SDS_P1;SDS_P2;PMS_P1;PMS_P2;Temp;Humidity;BMP_temperature;BMP_pressure;BME280_temperature;BME280_humidity;BME280_pressure;Samples;Min_cycle;Max_cycle;Signal;HPM_P1;HPM_P2
2023/11/15 00:00:00;;;;;;;;;;;;;;;0.73;90.49;94660.69;4978779;28;19981;-79
2023/11/15 00:02:25;;;;;;;;;;;;;;;0.60;91.42;94668.81;4976538;28;19991;-76
2023/11/15 00:04:50;;;;;;;;;;;;;;;0.76;91.07;94662.19;4981537;28;20459;-75
2023/11/15 00:07:16;;;;;;;;;;;;;;;0.90;89.59;94680.09;4960476;28;20529;-77
2023/11/15 00:09:41;;;;;;;;;;;;;;;0.75;89.49;94710.31;4980595;28;20093;-75
2023/11/15 00:12:06;;;;;;;;;;;;;;;1.11;88.63;94681.72;4979073;28;20015;-76
2023/11/15 00:14:32;;;;;;;;;;;;;;;0.67;89.49;94706.59;4978829;28;20005;-78
2023/11/15 00:16:57;;;;;;;;;;;;;;;0.44;90.88;94742.69;4980701;28;19974;-75
2023/11/15 00:19:23;;;;;;;;;;;;;;;0.65;90.68;94705.09;4994972;28;20041;-77
2023/11/15 00:21:49;;;;;;;;;;;;;;;0.89;89.25;94707.25;4980554;28;19970;-76
2023/11/15 00:24:14;;;;;;;;;;;;;;;0.91;88.81;94705.34;4977406;28;19993;-78
2023/11/15 00:26:39;;;;;;;;;;;;;;;1.34;85.97;94702.34;4977979;28;19992;-78
2023/11/15 00:29:05;;;;;;;;;;;;;;;1.26;85.85;94725.84;4978667;28;19994;-80
2023/11/15 00:31:31;;;;;;;;;;;;;;;0.96;86.53;94734.56;4980500;28;19990;-79
2023/11/15 00:33:57;;;;;;;;;;;;;;;0.63;88.58;94720.94;4987391;28;19992;-75
2023/11/15 00:36:23;;;;;;;;;;;;;;;1.02;87.55;94727.13;4988038;28;20025;-75
2023/11/15 00:38:51;;;;;;;;;;;;;;;1.04;86.86;94733.88;4993550;28;19993;-75
2023/11/15 00:41:16;;;;;;;;;;;;;;;1.23;85.18;94725.16;4986549;28;19977;-76
2023/11/15 00:43:42;;;;;;;;;;;;;;;1.58;83.79;94732.53;4987254;28;19990;-75
2023/11/15 00:46:12;;;;;;;;;;;;;;;1.60;83.59;94739.28;4988914;28;20037;-77
2023/11/15 00:48:38;;;;;;;;;;;;;;;1.30;83.90;94758.69;4988234;28;20562;-75
2023/11/15 00:51:03;;;;;;;;;;;;;;;1.11;86.40;94766.44;4987852;28;19982;-76
2023/11/15 00:53:28;;;;;;;;;;;;;;;1.14;85.90;94749.59;4983912;28;20737;-78
2023/11/15 00:55:54;;;;;;;;;;;;;;;0.79;87.40;94766.72;4986093;28;20058;-75
2023/11/15 00:58:19;;;;;;;;;;;;;;;0.90;87.48;94766.59;4984053;28;20025;-77
2023/11/15 01:00:45;;;;;;;;;;;;;;;1.00;88.64;94773.63;4988062;28;19966;-77
2023/11/15 01:03:15;;;;;;;;;;;;;;;0.72;88.71;94788.22;4980927;28;20021;-77
2023/11/15 01:05:41;;;;;;;;;;;;;;;1.05;88.57;94777.47;4984360;28;19965;-75
2023/11/15 01:08:06;;;;;;;;;;;;;;;0.68;91.66;94775.56;4981249;28;19987;-78
2023/11/15 01:10:34;;;;;;;;;;;;;;;0.51;93.27;94790.97;4984305;28;20009;-75
2023/11/15 01:12:59;;;;;;;;;;;;;;;0.57;92.91;94840.22;4984505;28;20463;-75
2023/11/15 01:15:25;;;;;;;;;;;;;;;0.23;96.21;94798.63;4984005;28;20088;-78
2023/11/15 01:17:50;;;;;;;;;;;;;;;0.61;94.60;94811.13;4983281;28;19974;-75
2023/11/15 01:20:16;;;;;;;;;;;;;;;0.78;93.38;94794.72;4984085;28;19990;-78
2023/11/15 01:22:41;;;;;;;;;;;;;;;0.90;92.77;94805.91;4982211;28;19996;-78
2023/11/15 01:25:06;;;;;;;;;;;;;;;0.70;93.64;94820.78;4984200;28;19982;-77
2023/11/15 01:27:32;;;;;;;;;;;;;;;0.74;93.11;94824.78;4983082;28;20052;-76
2023/11/15 01:29:57;;;;;;;;;;;;;;;0.54;94.77;94824.75;4984880;28;20028;-77
2023/11/15 01:32:22;;;;;;;;;;;;;;;0.58;93.89;94836.63;4983905;28;20001;-76
2023/11/15 01:34:47;;;;;;;;;;;;;;;0.45;95.52;94823.75;4984625;28;19990;-75
2023/11/15 01:37:14;;;;;;;;;;;;;;;0.45;95.53;94844.72;4983276;28;20750;-76
2023/11/15 01:39:39;;;;;;;;;;;;;;;0.39;96.33;94847.06;4984052;28;20040;-76
2023/11/15 01:42:04;;;;;;;;;;;;;;;0.42;96.01;94845.00;4984542;28;20106;-76
2023/11/15 01:44:29;;;;;;;;;;;;;;;0.64;95.68;94837.03;4981190;28;20020;-75
2023/11/15 01:46:55;;;;;;;;;;;;;;;0.65;94.34;94839.53;4981792;28;20568;-74
2023/11/15 01:49:20;;;;;;;;;;;;;;;0.76;95.00;94837.75;4979661;28;20055;-76
2023/11/15 01:51:46;;;;;;;;;;;;;;;0.53;95.04;94862.41;4978308;28;20045;-75
2023/11/15 01:54:11;;;;;;;;;;;;;;;0.74;94.04;94853.59;4978182;28;19970;-74
2023/11/15 01:56:37;;;;;;;;;;;;;;;0.81;94.39;94854.72;4981354;28;19963;-77
2023/11/15 01:59:02;;;;;;;;;;;;;;;0.98;93.45;94855.00;4980384;28;19998;-76
2023/11/15 02:01:28;;;;;;;;;;;;;;;0.93;92.14;94870.34;4981188;28;20374;-76
2023/11/15 02:03:54;;;;;;;;;;;;;;;0.70;93.71;94855.69;4980223;28;20004;-74
2023/11/15 02:06:19;;;;;;;;;;;;;;;0.61;94.55;94850.44;4981236;28;20017;-74
2023/11/15 02:08:45;;;;;;;;;;;;;;;0.77;93.75;94857.75;4980051;28;20447;-75
2023/11/15 02:11:10;;;;;;;;;;;;;;;0.68;94.34;94868.06;4977218;28;20734;-75
2023/11/15 02:13:35;;;;;;;;;;;;;;;0.62;93.98;94873.88;4976781;28;19985;-75
2023/11/15 02:16:01;;;;;;;;;;;;;;;0.64;94.65;94873.72;4981293;28;19986;-74
2023/11/15 02:18:26;;;;;;;;;;;;;;;0.55;94.59;94876.19;4980565;28;19974;-75
2023/11/15 02:20:51;;;;;;;;;;;;;;;1.02;92.94;94853.78;4980161;28;20171;-75
2023/11/15 02:23:21;;;;;;;;;;;;;;;1.08;92.43;94871.59;4978591;28;20471;-75
2023/11/15 02:25:46;;;;;;;;;;;;;;;1.06;92.17;94897.09;4977768;28;20460;-76
2023/11/15 02:28:11;;;;;;;;;;;;;;;0.57;93.67;94886.53;4980172;28;20012;-76
2023/11/15 02:30:36;;;;;;;;;;;;;;;0.84;93.71;94882.44;4979947;28;20000;-75
2023/11/15 02:33:02;;;;;;;;;;;;;;;0.81;92.96;94874.84;4981393;28;19977;-74
2023/11/15 02:35:27;;;;;;;;;;;;;;;0.77;93.74;94879.56;4980185;28;19986;-74
2023/11/15 02:37:52;;;;;;;;;;;;;;;0.81;93.20;94886.19;4981248;28;20219;-75
2023/11/15 02:40:17;;;;;;;;;;;;;;;0.77;93.20;94883.94;4962910;28;20830;-75
2023/11/15 02:42:43;;;;;;;;;;;;;;;0.80;92.79;94895.00;4979686;28;19990;-74
2023/11/15 02:45:08;;;;;;;;;;;;;;;0.82;94.54;94887.03;4978775;28;20725;-74
2023/11/15 02:47:33;;;;;;;;;;;;;;;0.52;95.14;94934.09;4979388;28;20607;-74
2023/11/15 02:49:58;;;;;;;;;;;;;;;0.45;96.04;94898.91;4979574;28;20171;-75
2023/11/15 02:52:24;;;;;;;;;;;;;;;0.69;95.17;94903.78;4978353;28;19990;-76
2023/11/15 02:54:49;;;;;;;;;;;;;;;0.66;95.08;94898.84;4978928;28;20096;-76
2023/11/15 02:57:14;;;;;;;;;;;;;;;0.62;95.72;94914.94;4974825;28;20013;-76
2023/11/15 02:59:40;;;;;;;;;;;;;;;0.78;95.03;94920.50;4994851;28;20057;-75
2023/11/15 03:02:05;;;;;;;;;;;;;;;0.81;94.50;94925.50;4979915;28;20077;-75
2023/11/15 03:04:30;;;;;;;;;;;;;;;1.38;91.58;94929.31;4980159;28;20072;-75
2023/11/15 03:06:55;;;;;;;;;;;;;;;1.18;91.77;94928.44;4979995;28;20002;-75
2023/11/15 03:09:21;;;;;;;;;;;;;;;1.22;90.73;94922.81;4976500;28;19980;-76
2023/11/15 03:11:46;;;;;;;;;;;;;;;0.97;91.64;94938.09;4979087;28;20756;-75
2023/11/15 03:14:11;;;;;;;;;;;;;;;1.03;92.50;94933.25;4977811;28;19967;-75
2023/11/15 03:16:36;;;;;;;;;;;;;;;1.23;90.88;94932.31;4979575;28;19974;-74
2023/11/15 03:19:02;;;;;;;;;;;;;;;1.45;89.48;94935.66;4974602;28;20001;-76
2023/11/15 03:21:27;;;;;;;;;;;;;;;1.94;87.71;94939.25;4974382;28;20493;-75
2023/11/15 03:23:52;;;;;;;;;;;;;;;1.06;89.94;94946.91;4983574;28;20000;-75
2023/11/15 03:26:17;;;;;;;;;;;;;;;1.21;90.47;94947.38;4983511;28;20172;-76
2023/11/15 03:28:42;;;;;;;;;;;;;;;1.29;90.04;94959.00;4978707;28;20465;-74
2023/11/15 03:31:12;;;;;;;;;;;;;;;1.50;88.36;94945.75;4984402;28;20377;-75
2023/11/15 03:33:37;;;;;;;;;;;;;;;1.53;89.10;94965.63;4967885;28;20443;-76
2023/11/15 03:36:03;;;;;;;;;;;;;;;1.31;90.25;94986.72;4963365;28;19994;-76
2023/11/15 03:38:28;;;;;;;;;;;;;;;1.24;90.52;94957.59;4961292;28;19990;-74
2023/11/15 03:40:54;;;;;;;;;;;;;;;1.17;90.94;94958.25;4983141;28;19969;-75
2023/11/15 03:43:19;;;;;;;;;;;;;;;1.43;91.01;94965.63;4981909;28;19993;-76
2023/11/15 03:45:45;;;;;;;;;;;;;;;1.33;89.72;94966.44;4984963;28;20037;-73
2023/11/15 03:48:11;;;;;;;;;;;;;;;0.85;93.17;94975.84;4981710;28;19995;-75
2023/11/15 03:50:36;;;;;;;;;;;;;;;0.69;93.44;94998.13;4984342;28;19996;-74
2023/11/15 03:53:02;;;;;;;;;;;;;;;0.61;95.29;94976.19;4980418;28;20716;-75
2023/11/15 03:55:28;;;;;;;;;;;;;;;0.53;95.95;94980.28;4978637;28;19990;-76
2023/11/15 03:57:53;;;;;;;;;;;;;;;0.57;95.52;95018.34;4979421;28;20177;-74
2023/11/15 04:00:18;;;;;;;;;;;;;;;0.60;96.09;94993.69;4979343;28;20008;-75
2023/11/15 04:02:45;;;;;;;;;;;;;;;0.90;94.10;95009.53;4981396;28;19989;-75
2023/11/15 04:05:10;;;;;;;;;;;;;;;0.72;94.25;95000.47;4978987;28;19976;-77
2023/11/15 04:07:37;;;;;;;;;;;;;;;0.84;93.18;95010.88;4978758;28;19994;-76
2023/11/15 04:10:02;;;;;;;;;;;;;;;0.46;95.66;95014.03;4981956;28;19996;-79
2023/11/15 04:12:27;;;;;;;;;;;;;;;0.72;95.44;95008.34;4987411;28;19993;-77
2023/11/15 04:14:53;;;;;;;;;;;;;;;0.93;94.29;95022.38;4979083;28;20806;-78
2023/11/15 04:17:18;;;;;;;;;;;;;;;1.20;92.30;95036.69;4966871;28;19995;-80
2023/11/15 04:19:43;;;;;;;;;;;;;;;1.20;91.54;95034.06;4978977;28;20043;-77
2023/11/15 04:22:08;;;;;;;;;;;;;;;1.13;92.44;95032.91;4983313;28;20204;-78
2023/11/15 04:24:34;;;;;;;;;;;;;;;0.95;92.58;95028.28;4978367;28;20560;-76
2023/11/15 04:26:59;;;;;;;;;;;;;;;0.79;93.91;95032.22;4979233;28;19998;-76
2023/11/15 04:29:25;;;;;;;;;;;;;;;1.02;92.44;95042.53;4976217;28;20000;-78
2023/11/15 04:31:50;;;;;;;;;;;;;;;1.06;93.18;95032.63;4983979;28;20013;-79
2023/11/15 04:34:17;;;;;;;;;;;;;;;1.56;89.49;95047.56;4984096;28;19984;-79
2023/11/15 04:36:42;;;;;;;;;;;;;;;1.17;91.40;95027.28;4983529;28;19998;-78
2023/11/15 04:39:08;;;;;;;;;;;;;;;1.30;90.25;95048.00;4984084;28;19990;-80
2023/11/15 04:41:34;;;;;;;;;;;;;;;1.29;91.01;95056.84;4983596;28;19982;-79
2023/11/15 04:43:59;;;;;;;;;;;;;;;1.32;89.55;95043.47;4977770;28;20502;-79
2023/11/15 04:46:24;;;;;;;;;;;;;;;1.57;89.57;95054.44;4983935;28;20020;-81
2023/11/15 04:48:49;;;;;;;;;;;;;;;1.54;88.68;95049.50;4981347;28;20067;-78
2023/11/15 04:51:14;;;;;;;;;;;;;;;1.77;87.38;95051.03;4981508;28;20006;-80
2023/11/15 04:53:40;;;;;;;;;;;;;;;1.28;89.32;95049.94;4982331;28;20006;-78
2023/11/15 04:56:05;;;;;;;;;;;;;;;0.97;91.14;95066.53;4982191;28;20072;-77
2023/11/15 04:58:31;;;;;;;;;;;;;;;0.97;90.58;95056.06;4982653;28;19994;-77
2023/11/15 05:00:56;;;;;;;;;;;;;;;0.74;92.18;95063.25;4982171;28;19982;-80
2023/11/15 05:03:21;;;;;;;;;;;;;;;0.92;91.54;95057.41;4983721;28;20180;-77
2023/11/15 05:05:47;;;;;;;;;;;;;;;1.29;89.49;95072.56;4983742;28;20206;-80
2023/11/15 05:08:12;;;;;;;;;;;;;;;1.29;88.77;95063.91;4982627;28;20586;-80
2023/11/15 05:10:37;;;;;;;;;;;;;;;1.45;87.86;95074.72;4983382;28;19993;-78
2023/11/15 05:13:04;;;;;;;;;;;;;;;1.34;87.84;95067.78;4984006;28;20459;-81
2023/11/15 05:15:30;;;;;;;;;;;;;;;1.59;87.36;95057.78;4972468;28;20084;-76
2023/11/15 05:17:55;;;;;;;;;;;;;;;1.17;88.84;95073.66;4988101;28;20081;-79
2023/11/15 05:20:20;;;;;;;;;;;;;;;1.21;89.15;95060.16;4985847;28;20024;-78
2023/11/15 05:22:46;;;;;;;;;;;;;;;0.75;91.84;95070.16;4985853;28;19990;-80
2023/11/15 05:25:12;;;;;;;;;;;;;;;1.12;89.91;95074.03;4981774;28;20020;-78
2023/11/15 05:27:37;;;;;;;;;;;;;;;0.98;90.37;95088.34;4980564;28;20006;-81
2023/11/15 05:30:03;;;;;;;;;;;;;;;1.22;90.64;95068.81;4972488;28;19998;-77
2023/11/15 05:32:28;;;;;;;;;;;;;;;0.57;92.71;95094.34;4982037;28;19996;-78
2023/11/15 05:34:53;;;;;;;;;;;;;;;0.83;92.74;95088.69;4981019;28;20001;-79
2023/11/15 05:37:18;;;;;;;;;;;;;;;0.94;91.64;95094.78;4980008;28;20610;-80
2023/11/15 05:39:43;;;;;;;;;;;;;;;0.94;91.89;95085.16;4980672;28;20460;-78
2023/11/15 05:42:09;;;;;;;;;;;;;;;1.14;90.80;95092.25;4979267;28;20631;-79
2023/11/15 05:44:34;;;;;;;;;;;;;;;0.96;91.49;95092.88;4975180;28;19997;-77
2023/11/15 05:46:59;;;;;;;;;;;;;;;1.15;90.44;95101.78;4981269;28;19990;-77
2023/11/15 05:49:26;;;;;;;;;;;;;;;1.20;89.44;95125.84;4982238;28;19996;-79
2023/11/15 05:51:51;;;;;;;;;;;;;;;0.97;90.99;95124.22;4978976;28;19989;-82
2023/11/15 05:54:16;;;;;;;;;;;;;;;0.93;90.48;95142.94;4982898;28;20018;-77
2023/11/15 05:56:47;;;;;;;;;;;;;;;0.88;91.34;95129.41;4981245;28;20384;-79
2023/11/15 05:59:13;;;;;;;;;;;;;;;0.96;90.83;95124.34;4979214;28;20001;-80
2023/11/15 06:01:39;;;;;;;;;;;;;;;0.79;91.77;95136.25;4980056;28;19973;-78
2023/11/15 06:04:04;;;;;;;;;;;;;;;1.08;90.59;95122.47;4974379;28;20133;-79
2023/11/15 06:06:30;;;;;;;;;;;;;;;0.80;91.83;95136.13;4980541;28;20074;-79
2023/11/15 06:08:55;;;;;;;;;;;;;;;0.80;91.65;95146.59;4979584;28;20583;-79
2023/11/15 06:11:21;;;;;;;;;;;;;;;1.04;89.74;95127.16;4979103;28;20081;-79
2023/11/15 06:13:46;;;;;;;;;;;;;;;1.02;91.30;95143.97;4975068;28;19978;-78
2023/11/15 06:16:12;;;;;;;;;;;;;;;1.32;89.86;95134.44;4977783;28;19994;-78
2023/11/15 06:18:37;;;;;;;;;;;;;;;1.40;88.56;95133.78;4981551;28;19991;-79
2023/11/15 06:21:02;;;;;;;;;;;;;;;1.47;87.43;95135.72;4980309;28;19966;-78
2023/11/15 06:23:28;;;;;;;;;;;;;;;1.42;87.44;95143.19;4977673;28;19992;-79
2023/11/15 06:25:53;;;;;;;;;;;;;;;1.65;86.64;95139.56;4982080;28;19972;-78
2023/11/15 06:28:19;;;;;;;;;;;;;;;1.27;88.34;95144.50;4978936;28;20043;-77
2023/11/15 06:30:48;;;;;;;;;;;;;;;1.14;89.03;95135.06;4975975;28;20132;-81
2023/11/15 06:33:14;;;;;;;;;;;;;;;1.29;88.58;95153.09;4979064;28;20531;-81
2023/11/15 06:35:39;;;;;;;;;;;;;;;1.79;86.62;95148.84;4979866;28;19987;-78
2023/11/15 06:38:05;;;;;;;;;;;;;;;1.76;85.58;95136.81;4981660;28;20006;-78
2023/11/15 06:40:30;;;;;;;;;;;;;;;1.54;87.10;95148.38;4982468;28;20004;-79
2023/11/15 06:42:56;;;;;;;;;;;;;;;1.50;86.44;95143.34;4969743;28;20581;-78
2023/11/15 06:45:22;;;;;;;;;;;;;;;1.26;88.66;95146.28;4979673;28;19977;-78
2023/11/15 06:47:49;;;;;;;;;;;;;;;1.17;88.93;95173.31;4979859;28;20418;-81
2023/11/15 06:50:16;;;;;;;;;;;;;;;1.01;90.09;95163.25;4980640;28;19992;-78
2023/11/15 06:52:41;;;;;;;;;;;;;;;1.27;88.91;95157.63;4981841;28;19978;-76
2023/11/15 06:55:09;;;;;;;;;;;;;;;0.90;89.77;95161.56;4981795;28;20013;-79
2023/11/15 06:57:36;;;;;;;;;;;;;;;1.21;88.67;95161.59;4981763;28;19981;-79
2023/11/15 07:00:04;;;;;;;;;;;;;;;1.23;88.61;95175.41;4980477;28;20083;-79
2023/11/15 07:02:29;;;;;;;;;;;;;;;1.36;87.87;95164.69;4980852;28;20532;-77
2023/11/15 07:04:55;;;;;;;;;;;;;;;0.95;88.55;95170.69;4979721;28;19974;-80
2023/11/15 07:07:21;;;;;;;;;;;;;;;0.86;89.50;95181.97;4980252;28;20550;-81
2023/11/15 07:09:46;;;;;;;;;;;;;;;0.91;89.54;95182.41;4980826;28;20038;-82
2023/11/15 07:12:11;;;;;;;;;;;;;;;1.05;89.34;95175.16;4976483;28;20074;-80
2023/11/15 07:14:36;;;;;;;;;;;;;;;1.53;86.90;95176.38;4974349;28;20016;-78
2023/11/15 07:17:02;;;;;;;;;;;;;;;1.01;88.51;95195.56;4976125;28;20508;-81
2023/11/15 07:19:32;;;;;;;;;;;;;;;0.96;88.91;95189.88;4979442;28;20088;-77
2023/11/15 07:21:57;;;;;;;;;;;;;;;0.93;88.83;95187.50;4980200;28;20462;-80
2023/11/15 07:24:23;;;;;;;;;;;;;;;1.06;88.75;95188.13;4981129;28;19981;-81
2023/11/15 07:26:48;;;;;;;;;;;;;;;0.98;89.06;95195.81;4966983;28;20077;-76
2023/11/15 07:29:18;;;;;;;;;;;;;;;0.87;90.58;95203.75;4981416;28;20024;-65
2023/11/15 07:31:43;;;;;;;;;;;;;;;1.41;88.00;95190.53;4979328;28;19988;-65
2023/11/15 07:34:10;;;;;;;;;;;;;;;1.43;87.40;95199.13;4990314;28;19970;-64
2023/11/15 07:36:36;;;;;;;;;;;;;;;1.54;86.69;95204.31;4975579;28;20049;-67
2023/11/15 07:39:01;;;;;;;;;;;;;;;1.65;85.96;95218.28;4982782;28;19995;-67
2023/11/15 07:41:27;;;;;;;;;;;;;;;2.16;84.03;95210.41;4984006;28;20480;-64
2023/11/15 07:43:55;;;;;;;;;;;;;;;2.34;83.10;95221.94;4977882;28;20872;-67
2023/11/15 07:46:24;;;;;;;;;;;;;;;2.36;81.75;95222.66;4979693;28;20293;-65
2023/11/15 07:48:50;;;;;;;;;;;;;;;1.67;84.14;95232.13;4978825;28;20572;-67
2023/11/15 07:51:18;;;;;;;;;;;;;;;2.01;84.49;95230.03;4980356;28;20105;-65
2023/11/15 07:53:43;;;;;;;;;;;;;;;1.95;84.21;95227.09;4989035;28;19974;-67
2023/11/15 07:56:08;;;;;;;;;;;;;;;2.08;82.39;95240.00;4979700;28;20079;-64
2023/11/15 07:58:34;;;;;;;;;;;;;;;2.09;84.50;95234.63;4983203;28;19994;-67
2023/11/15 08:00:59;;;;;;;;;;;;;;;2.36;82.78;95233.16;4978529;28;20273;-68
2023/11/15 08:03:28;;;;;;;;;;;;;;;2.23;82.22;95245.69;4973803;28;20114;-65
2023/11/15 08:05:55;;;;;;;;;;;;;;;2.24;81.66;95255.22;4978766;28;19964;-65
2023/11/15 08:08:20;;;;;;;;;;;;;;;2.60;80.91;95252.13;4985003;28;20518;-66
2023/11/15 08:10:48;;;;;;;;;;;;;;;3.05;78.54;95248.09;4983006;28;20159;-64
2023/11/15 08:13:13;;;;;;;;;;;;;;;3.06;78.28;95257.66;4988569;28;20072;-65
2023/11/15 08:15:39;;;;;;;;;;;;;;;3.19;78.30;95269.72;4986171;28;20772;-67
2023/11/15 08:18:05;;;;;;;;;;;;;;;3.32;75.24;95254.44;4978956;28;20409;-65
2023/11/15 08:20:31;;;;;;;;;;;;;;;3.70;75.66;95261.59;4981785;28;19976;-65
2023/11/15 08:22:57;;;;;;;;;;;;;;;3.42;76.42;95268.44;4984415;28;20036;-68
2023/11/15 08:25:22;;;;;;;;;;;;;;;3.89;75.80;95276.50;4986543;28;19950;-67
2023/11/15 08:27:47;;;;;;;;;;;;;;;3.39;76.78;95281.88;4981328;28;19968;-66
2023/11/15 08:30:17;;;;;;;;;;;;;;;2.68;78.82;95283.00;4982512;28;19977;-66
2023/11/15 08:32:42;;;;;;;;;;;;;;;2.87;78.39;95272.50;4981209;28;19972;-67
2023/11/15 08:35:09;;;;;;;;;;;;;;;2.03;81.76;95278.94;4983017;28;19986;-65
2023/11/15 08:37:35;;;;;;;;;;;;;;;2.23;81.60;95306.97;4983119;28;19989;-67
2023/11/15 08:40:00;;;;;;;;;;;;;;;2.00;83.16;95303.69;4984144;28;19987;-64
2023/11/15 08:42:26;;;;;;;;;;;;;;;2.29;81.65;95300.34;4979063;28;20384;-64
2023/11/15 08:44:53;;;;;;;;;;;;;;;2.34;82.71;95299.91;4981868;28;20029;-65
2023/11/15 08:47:18;;;;;;;;;;;;;;;3.05;79.58;95295.47;4983770;28;19982;-65
2023/11/15 08:49:44;;;;;;;;;;;;;;;3.08;78.65;95303.06;4982097;28;19984;-67
2023/11/15 08:52:09;;;;;;;;;;;;;;;2.85;78.91;95308.59;4989140;28;20049;-67
2023/11/15 08:54:37;;;;;;;;;;;;;;;2.75;80.29;95320.88;4983433;28;20358;-66
2023/11/15 08:57:02;;;;;;;;;;;;;;;3.29;77.38;95309.97;4986426;28;19962;-66
2023/11/15 08:59:29;;;;;;;;;;;;;;;2.97;78.84;95308.47;4983910;28;19985;-67
2023/11/15 09:01:54;;;;;;;;;;;;;;;2.89;79.80;95317.03;4978270;28;19971;-68
2023/11/15 09:04:20;;;;;;;;;;;;;;;2.72;78.75;95335.16;4982653;28;20448;-66
2023/11/15 09:06:46;;;;;;;;;;;;;;;2.72;79.28;95339.59;4978395;28;20415;-66
2023/11/15 09:09:14;;;;;;;;;;;;;;;2.25;81.75;95333.09;4977323;28;19990;-65
2023/11/15 09:11:40;;;;;;;;;;;;;;;3.00;79.15;95323.97;4984275;28;19989;-64
2023/11/15 09:14:08;;;;;;;;;;;;;;;3.04;78.76;95335.88;4984558;28;19965;-67
2023/11/15 09:16:34;;;;;;;;;;;;;;;2.45;79.75;95351.56;4981174;28;19987;-65
2023/11/15 09:19:01;;;;;;;;;;;;;;;2.33;81.15;95343.78;4974839;28;20041;-65
2023/11/15 09:21:26;;;;;;;;;;;;;;;2.16;81.93;95345.22;4985500;28;19964;-67
2023/11/15 09:23:52;;;;;;;;;;;;;;;2.68;80.29;95346.09;4979713;28;19985;-67
2023/11/15 09:26:19;;;;;;;;;;;;;;;2.55;80.28;95355.03;4981863;28;20027;-65
2023/11/15 09:28:44;;;;;;;;;;;;;;;3.19;78.34;95348.63;4989929;28;20000;-66
2023/11/15 09:31:12;;;;;;;;;;;;;;;3.19;78.54;95353.91;4984801;28;20011;-67
2023/11/15 09:33:37;;;;;;;;;;;;;;;3.22;77.99;95350.97;4980747;28;20650;-65
2023/11/15 09:36:06;;;;;;;;;;;;;;;2.89;76.87;95351.22;4985552;28;19973;-65
2023/11/15 09:38:32;;;;;;;;;;;;;;;2.85;79.48;95342.78;4981116;28;20529;-64
2023/11/15 09:41:00;;;;;;;;;;;;;;;2.64;79.76;95348.97;4985058;28;19963;-65
2023/11/15 09:43:25;;;;;;;;;;;;;;;2.55;80.34;95348.97;4981428;28;22130;-65
2023/11/15 09:45:50;;;;;;;;;;;;;;;2.38;80.39;95344.19;4982789;28;19971;-65
2023/11/15 09:48:16;;;;;;;;;;;;;;;2.18;82.07;95347.72;4986132;28;20035;-66
2023/11/15 09:50:41;;;;;;;;;;;;;;;2.39;81.11;95348.47;4988969;28;19998;-64
2023/11/15 09:53:07;;;;;;;;;;;;;;;2.27;81.44;95353.00;4980452;28;19958;-67
2023/11/15 09:55:36;;;;;;;;;;;;;;;2.04;82.95;95362.03;4986263;28;19984;-64
2023/11/15 09:58:01;;;;;;;;;;;;;;;2.26;80.49;95355.78;4980976;28;20099;-64
2023/11/15 10:00:29;;;;;;;;;;;;;;;2.57;79.35;95349.63;4984595;28;20553;-67
2023/11/15 10:02:55;;;;;;;;;;;;;;;2.64;80.10;95356.03;4982288;28;20704;-66
2023/11/15 10:05:26;;;;;;;;;;;;;;;2.33;80.36;95349.03;4981788;28;19957;-63
2023/11/15 10:08:06;;;;;;;;;;;;;;;2.51;80.03;95354.47;4981322;28;19963;-65
2023/11/15 10:10:31;;;;;;;;;;;;;;;2.70;79.14;95360.75;4982367;28;20034;-67
2023/11/15 10:12:57;;;;;;;;;;;;;;;2.22;80.09;95363.06;4980959;28;19954;-66
2023/11/15 10:15:29;;;;;;;;;;;;;;;1.97;81.47;95372.22;4977440;28;19976;-66
2023/11/15 10:17:54;;;;;;;;;;;;;;;1.92;81.64;95367.38;4985305;28;20600;-65
2023/11/15 10:20:22;;;;;;;;;;;;;;;1.95;81.80;95372.38;4985360;28;19966;-64
2023/11/15 10:22:47;;;;;;;;;;;;;;;2.76;79.78;95365.44;4979307;28;19973;-64
2023/11/15 10:25:13;;;;;;;;;;;;;;;3.28;76.96;95366.22;4981012;28;19986;-66
2023/11/15 10:27:42;;;;;;;;;;;;;;;2.88;76.98;95379.34;4980021;28;20350;-64
2023/11/15 10:30:16;;;;;;;;;;;;;;;3.64;76.27;95373.59;4980310;28;20007;-64
2023/11/15 10:32:41;;;;;;;;;;;;;;;3.77;72.86;95368.00;4990392;28;20230;-65
2023/11/15 10:35:08;;;;;;;;;;;;;;;3.30;73.55;95393.22;4978479;28;20066;-67
2023/11/15 10:37:33;;;;;;;;;;;;;;;3.09;73.92;95367.88;4978815;28;19933;-64
2023/11/15 10:39:59;;;;;;;;;;;;;;;3.53;74.22;95358.75;4985080;28;19922;-64
2023/11/15 10:42:25;;;;;;;;;;;;;;;3.40;73.64;95365.09;4986284;28;19932;-66
2023/11/15 10:44:50;;;;;;;;;;;;;;;3.83;72.05;95388.50;4979755;28;20593;-68
2023/11/15 10:47:19;;;;;;;;;;;;;;;3.14;72.21;95373.53;4978797;28;20343;-67
2023/11/15 10:49:44;;;;;;;;;;;;;;;3.11;73.69;95363.31;4979138;28;20463;-67
2023/11/15 10:52:11;;;;;;;;;;;;;;;3.34;72.47;95357.78;4976233;28;19956;-67
2023/11/15 10:54:38;;;;;;;;;;;;;;;3.05;72.28;95366.47;4973065;28;20621;-64
2023/11/15 10:57:05;;;;;;;;;;;;;;;3.08;73.05;95352.22;4983326;28;19921;-65
2023/11/15 10:59:33;;;;;;;;;;;;;;;3.42;71.43;95367.59;4981100;28;20561;-68
2023/11/15 11:02:00;;;;;;;;;;;;;;;3.15;71.41;95363.84;4979790;28;20051;-65
2023/11/15 11:04:25;;;;;;;;;;;;;;;3.36;71.27;95360.25;4978417;28;20055;-65
2023/11/15 11:06:54;;;;;;;;;;;;;;;3.46;70.47;95368.16;4979178;28;20055;-66
2023/11/15 11:09:21;;;;;;;;;;;;;;;3.60;70.08;95361.69;4980365;28;19937;-66
2023/11/15 11:11:46;;;;;;;;;;;;;;;3.86;69.05;95361.06;4981176;28;19928;-64
2023/11/15 11:14:20;;;;;;;;;;;;;;;3.43;70.58;95359.56;4972096;28;19917;-65
2023/11/15 11:16:46;;;;;;;;;;;;;;;3.61;70.15;95364.13;4974625;28;19958;-66
2023/11/15 11:19:21;;;;;;;;;;;;;;;4.12;69.41;95373.63;4976538;28;20501;-66
2023/11/15 11:22:05;;;;;;;;;;;;;;;3.78;69.46;95367.88;4979953;28;19948;-67
2023/11/15 11:24:35;;;;;;;;;;;;;;;4.10;68.19;95367.66;4983853;28;19921;-67
2023/11/15 11:27:14;;;;;;;;;;;;;;;3.73;68.33;95369.25;4978264;28;20172;-65
2023/11/15 11:29:57;;;;;;;;;;;;;;;3.80;69.34;95358.03;4980906;28;20068;-68
2023/11/15 11:32:26;;;;;;;;;;;;;;;4.41;67.36;95359.50;4982206;28;20566;-66
2023/11/15 11:35:01;;;;;;;;;;;;;;;3.81;68.28;95366.75;4977821;28;19968;-66
2023/11/15 11:37:55;;;;;;;;;;;;;;;3.34;69.18;95370.09;4981051;28;19926;-67
2023/11/15 11:40:23;;;;;;;;;;;;;;;3.63;68.75;95356.09;4974491;28;20000;-65
2023/11/15 11:42:52;;;;;;;;;;;;;;;4.09;66.80;95358.94;4975106;28;20563;-68
2023/11/15 11:45:17;;;;;;;;;;;;;;;3.95;66.43;95357.59;4982170;28;20342;-66
2023/11/15 11:47:46;;;;;;;;;;;;;;;4.43;64.96;95358.38;4981720;28;19930;-65
2023/11/15 11:50:18;;;;;;;;;;;;;;;3.58;66.43;95359.19;4983780;28;19976;-66
2023/11/15 11:52:43;;;;;;;;;;;;;;;4.26;65.03;95354.72;4982707;28;20657;-66
2023/11/15 11:55:08;;;;;;;;;;;;;;;3.93;63.84;95362.16;4983583;28;19929;-67
2023/11/15 11:57:34;;;;;;;;;;;;;;;3.87;64.50;95353.00;4983391;28;20006;-67
2023/11/15 12:00:04;;;;;;;;;;;;;;;2.91;67.24;95358.03;4990314;28;20421;-66
2023/11/15 12:02:36;;;;;;;;;;;;;;;3.37;67.23;95367.19;4986024;28;20276;-65
2023/11/15 12:05:01;;;;;;;;;;;;;;;3.12;66.22;95353.59;4982878;28;19980;-65
2023/11/15 12:07:27;;;;;;;;;;;;;;;3.38;65.65;95356.53;4985971;28;19921;-67
2023/11/15 12:09:54;;;;;;;;;;;;;;;3.45;65.17;95361.25;4984516;28;19933;-67
2023/11/15 12:12:22;;;;;;;;;;;;;;;3.81;63.46;95359.69;4982666;28;19918;-67
2023/11/15 12:14:56;;;;;;;;;;;;;;;3.60;63.45;95367.75;4984734;28;19925;-64
2023/11/15 12:17:21;;;;;;;;;;;;;;;3.88;63.83;95373.09;4982129;28;19924;-68
2023/11/15 12:19:46;;;;;;;;;;;;;;;3.61;63.54;95369.41;4979929;28;19921;-67
2023/11/15 12:22:11;;;;;;;;;;;;;;;3.13;64.35;95374.50;4982251;28;20465;-66
2023/11/15 12:24:38;;;;;;;;;;;;;;;3.26;62.81;95376.88;4982647;28;19957;-66
2023/11/15 12:27:03;;;;;;;;;;;;;;;2.97;65.43;95380.31;4977404;28;20514;-68
2023/11/15 12:29:30;;;;;;;;;;;;;;;2.69;67.09;95387.19;4983942;28;19926;-66
2023/11/15 12:31:56;;;;;;;;;;;;;;;2.47;68.37;95395.13;4985040;28;20789;-67
2023/11/15 12:34:22;;;;;;;;;;;;;;;2.57;68.67;95397.78;4983142;28;19925;-65
2023/11/15 12:36:47;;;;;;;;;;;;;;;3.06;68.77;95393.63;4981152;28;19995;-66
2023/11/15 12:39:12;;;;;;;;;;;;;;;3.67;65.47;95384.66;4983236;28;19991;-67
2023/11/15 12:41:46;;;;;;;;;;;;;;;3.98;63.39;95390.72;4986112;28;19917;-67
2023/11/15 12:44:12;;;;;;;;;;;;;;;4.31;62.06;95393.78;4984090;28;20731;-64
2023/11/15 12:46:38;;;;;;;;;;;;;;;3.45;64.32;95392.84;4986241;28;20016;-66
2023/11/15 12:49:04;;;;;;;;;;;;;;;3.79;64.22;95397.66;4983282;28;20013;-66
2023/11/15 12:51:32;;;;;;;;;;;;;;;3.97;64.47;95399.56;4988219;28;19922;-65